createdAt,value
2018-06-03T00:01:57.513Z,13.40
2018-06-03T00:04:27.608Z,13.50
2018-06-03T00:06:57.726Z,13.50
2018-06-03T00:09:27.923Z,13.60
2018-06-03T00:11:58.206Z,13.60
2018-06-03T00:14:28.513Z,13.50
2018-06-03T00:16:58.816Z,13.40
2018-06-03T00:19:28.941Z,13.40
2018-06-03T00:21:59.230Z,13.40
2018-06-03T00:24:28.648Z,13.30
2018-06-03T00:26:58.739Z,13.20
2018-06-03T00:29:29.310Z,13.20
2018-06-03T00:31:59.620Z,13.10
2018-06-03T00:34:29.904Z,13.00
2018-06-03T00:37:00.016Z,13.00
2018-06-03T00:39:31.067Z,13.00
2018-06-03T00:42:01.151Z,13.00
2018-06-03T00:44:31.482Z,13.00
2018-06-03T00:47:02.088Z,13.00
2018-06-03T00:49:32.180Z,13.00
2018-06-03T00:52:03.031Z,13.00
2018-06-03T00:54:34.075Z,13.10
2018-06-03T00:57:09.928Z,13.10
2018-06-03T00:59:39.699Z,13.10
2018-06-03T01:02:10.007Z,13.10
2018-06-03T01:04:40.303Z,13.10
2018-06-03T01:07:10.694Z,13.10
2018-06-03T01:09:40.998Z,13.10
2018-06-03T01:12:11.188Z,13.20
2018-06-03T01:14:42.261Z,13.30
2018-06-03T01:17:13.543Z,13.20
2018-06-03T01:19:43.617Z,13.30
2018-06-03T01:22:13.750Z,13.30
2018-06-03T01:24:43.829Z,13.30
2018-06-03T01:27:14.707Z,13.30
2018-06-03T01:29:44.808Z,13.30
2018-06-03T01:32:15.092Z,13.30
2018-06-03T01:34:45.959Z,13.40
2018-06-03T01:37:16.037Z,13.30
2018-06-03T01:39:46.113Z,13.40
2018-06-03T01:42:16.411Z,13.30
2018-06-03T01:44:46.495Z,13.40
2018-06-03T01:47:16.606Z,13.40
2018-06-03T01:49:46.718Z,13.40
2018-06-03T01:52:17.587Z,13.40
2018-06-03T01:54:48.123Z,13.40
2018-06-03T01:57:18.110Z,13.40
2018-06-03T01:59:48.395Z,13.40
2018-06-03T02:02:18.492Z,13.30
2018-06-03T02:04:48.601Z,13.30
2018-06-03T02:07:18.686Z,13.30
2018-06-03T02:09:48.966Z,13.30
2018-06-03T02:12:19.069Z,13.20
2018-06-03T02:14:49.328Z,13.30
2018-06-03T02:17:19.935Z,13.30
2018-06-03T02:19:50.006Z,13.30
2018-06-03T02:22:20.308Z,13.20
2018-06-03T02:24:50.856Z,13.30
2018-06-03T02:27:20.986Z,13.20
2018-06-03T02:29:52.048Z,13.30
2018-06-03T02:32:22.378Z,13.30
2018-06-03T02:34:52.551Z,13.30
2018-06-03T02:37:23.638Z,13.30
2018-06-03T02:39:53.910Z,13.30
2018-06-03T02:42:24.000Z,13.30
2018-06-03T02:44:54.088Z,13.20
2018-06-03T02:47:24.217Z,13.10
2018-06-03T02:49:54.316Z,13.10
2018-06-03T02:52:25.168Z,12.90
2018-06-03T02:54:55.439Z,12.90
2018-06-03T02:57:26.511Z,12.80
2018-06-03T02:59:56.841Z,12.80
2018-06-03T03:02:27.142Z,12.70
2018-06-03T03:04:57.238Z,12.70
2018-06-03T03:07:27.541Z,12.60
2018-06-03T03:09:57.630Z,12.60
2018-06-03T03:12:28.482Z,12.60
2018-06-03T03:14:59.585Z,12.50
2018-06-03T03:17:30.320Z,12.60
2018-06-03T03:20:01.203Z,12.50
2018-06-03T03:22:32.292Z,12.50
2018-06-03T03:25:02.375Z,12.50
2018-06-03T03:27:32.642Z,12.50
2018-06-03T03:30:03.233Z,12.50
2018-06-03T03:32:34.329Z,12.40
2018-06-03T03:35:04.088Z,12.40
2018-06-03T03:37:34.233Z,12.40
2018-06-03T03:40:03.984Z,12.40
2018-06-03T03:42:34.287Z,12.40
2018-06-03T03:45:05.147Z,12.40
2018-06-03T03:47:35.427Z,12.40
2018-06-03T03:50:05.217Z,12.40
2018-06-03T03:52:36.076Z,12.40
2018-06-03T03:55:06.236Z,12.40
2018-06-03T03:57:36.295Z,12.40
2018-06-03T04:00:06.300Z,12.50
2018-06-03T04:02:36.475Z,12.40
2018-06-03T04:05:06.747Z,12.40
2018-06-03T04:07:37.075Z,12.50
2018-06-03T04:10:06.830Z,12.50
2018-06-03T04:12:36.896Z,12.50
2018-06-03T04:15:07.188Z,12.60
2018-06-03T04:17:37.579Z,12.70
2018-06-03T04:20:07.675Z,12.70
2018-06-03T04:22:38.532Z,13.00
2018-06-03T04:25:08.606Z,13.00
2018-06-03T04:27:38.362Z,13.20
2018-06-03T04:30:08.639Z,13.40
2018-06-03T04:32:38.731Z,13.60
2018-06-03T04:35:09.299Z,13.70
2018-06-03T04:37:39.402Z,13.80
2018-06-03T04:40:09.543Z,13.90
2018-06-03T04:42:39.831Z,13.90
2018-06-03T04:45:09.923Z,13.90
2018-06-03T04:47:40.235Z,13.90
2018-06-03T04:50:11.099Z,13.90
2018-06-03T04:52:42.159Z,13.90
2018-06-03T04:55:12.531Z,13.90
2018-06-03T04:57:42.619Z,14.10
2018-06-03T05:00:12.675Z,14.30
2018-06-03T05:02:42.961Z,14.60
2018-06-03T05:05:13.045Z,14.90
2018-06-03T05:07:42.992Z,15.20
2018-06-03T05:10:13.067Z,15.50
2018-06-03T05:12:43.135Z,15.90
2018-06-03T05:15:13.963Z,16.20
2018-06-03T05:17:44.802Z,16.60
2018-06-03T05:20:15.632Z,17.00
2018-06-03T05:22:46.537Z,17.40
2018-06-03T05:25:17.399Z,17.80
2018-06-03T05:27:48.225Z,18.10
2018-06-03T05:30:19.069Z,18.50
2018-06-03T05:32:49.947Z,18.90
2018-06-03T05:35:21.052Z,19.30
2018-06-03T05:37:51.877Z,19.60
2018-06-03T05:40:22.661Z,20.00
2018-06-03T05:42:53.577Z,20.30
2018-06-03T05:45:24.419Z,20.40
2018-06-03T05:47:55.106Z,20.40
2018-06-03T05:50:25.741Z,20.40
2018-06-03T05:52:56.583Z,20.00
2018-06-03T05:55:27.217Z,19.80
2018-06-03T05:57:58.839Z,20.10
2018-06-03T06:00:29.450Z,20.10
2018-06-03T06:03:00.875Z,20.90
2018-06-03T06:05:31.536Z,20.80
2018-06-03T06:08:02.653Z,21.20
2018-06-03T06:10:33.290Z,21.60
2018-06-03T06:13:03.947Z,21.70
2018-06-03T06:15:35.375Z,21.80
2018-06-03T06:18:06.742Z,21.80
2018-06-03T06:20:37.386Z,21.80
2018-06-03T06:23:08.315Z,21.90
2018-06-03T06:25:38.954Z,21.80
2018-06-03T06:28:10.016Z,22.20
2018-06-03T06:30:40.667Z,22.50
2018-06-03T06:33:11.348Z,22.90
2018-06-03T06:35:42.200Z,23.20
2018-06-03T06:38:12.566Z,23.60
2018-06-03T06:40:42.971Z,23.40
2018-06-03T06:43:13.515Z,23.50
2018-06-03T06:45:44.171Z,23.50
2018-06-03T06:48:14.590Z,23.60
2018-06-03T06:50:44.955Z,23.50
2018-06-03T06:53:16.088Z,23.00
2018-06-03T06:55:46.737Z,22.90
2018-06-03T06:58:17.397Z,22.80
2018-06-03T07:00:48.241Z,22.90
2018-06-03T07:03:19.109Z,22.80
2018-06-03T07:05:49.951Z,22.80
2018-06-03T07:08:20.617Z,23.00
2018-06-03T07:10:52.511Z,23.00
2018-06-03T07:13:23.639Z,23.00
2018-06-03T07:15:54.470Z,23.20
2018-06-03T07:18:25.052Z,23.40
2018-06-03T07:20:55.883Z,23.10
2018-06-03T07:23:26.539Z,23.10
2018-06-03T07:25:57.147Z,23.10
2018-06-03T07:28:28.571Z,23.00
2018-06-03T07:30:59.508Z,23.00
2018-06-03T07:33:30.178Z,23.00
2018-06-03T07:36:00.895Z,23.00
2018-06-03T07:38:31.594Z,22.90
2018-06-03T07:41:02.264Z,23.10
2018-06-03T07:43:32.961Z,23.00
2018-06-03T07:46:03.832Z,23.10
2018-06-03T07:48:34.474Z,23.50
2018-06-03T07:51:04.830Z,23.60
2018-06-03T07:53:35.513Z,23.70
2018-06-03T07:56:06.228Z,23.80
2018-06-03T07:58:37.258Z,23.90
2018-06-03T08:01:07.927Z,24.00
2018-06-03T08:03:38.625Z,24.00
2018-06-03T08:06:09.600Z,24.10
2018-06-03T08:08:40.494Z,24.00
2018-06-03T08:11:11.357Z,23.90
2018-06-03T08:13:42.240Z,23.70
2018-06-03T08:16:14.155Z,23.80
2018-06-03T08:18:45.319Z,23.80
2018-06-03T08:21:16.251Z,23.80
2018-06-03T08:23:46.963Z,24.00
2018-06-03T08:26:18.386Z,24.00
2018-06-03T08:28:49.032Z,24.00
2018-06-03T08:31:20.654Z,23.80
2018-06-03T08:33:51.347Z,23.80
2018-06-03T08:36:22.181Z,23.80
2018-06-03T08:38:53.005Z,23.90
2018-06-03T08:41:23.755Z,24.10
2018-06-03T08:43:54.408Z,24.40
2018-06-03T08:46:25.105Z,24.10
2018-06-03T08:48:55.788Z,24.00
2018-06-03T08:51:26.428Z,23.90
2018-06-03T08:53:57.177Z,24.00
2018-06-03T08:56:27.860Z,24.10
2018-06-03T08:58:59.296Z,23.90
2018-06-03T09:01:30.226Z,23.90
2018-06-03T09:04:01.039Z,24.00
2018-06-03T09:06:32.429Z,24.30
2018-06-03T09:09:02.878Z,24.70
2018-06-03T09:11:33.593Z,24.80
2018-06-03T09:14:04.448Z,24.90
2018-06-03T09:16:36.192Z,24.40
2018-06-03T09:19:06.898Z,24.40
2018-06-03T09:21:38.637Z,23.20
2018-06-03T09:24:09.281Z,23.20
2018-06-03T09:26:40.084Z,23.30
2018-06-03T09:29:11.492Z,24.40
2018-06-03T09:31:42.352Z,24.30
2018-06-03T09:34:13.203Z,24.90
2018-06-03T09:36:43.965Z,25.20
2018-06-03T09:39:14.926Z,25.10
2018-06-03T09:41:46.651Z,25.50
2018-06-03T09:44:17.335Z,25.40
2018-06-03T09:46:47.906Z,26.00
2018-06-03T09:49:19.404Z,26.00
2018-06-03T09:51:50.052Z,26.00
2018-06-03T09:54:20.704Z,25.30
2018-06-03T09:56:51.608Z,24.80
2018-06-03T09:59:22.308Z,24.90
2018-06-03T10:01:53.285Z,25.40
2018-06-03T10:04:24.235Z,26.00
2018-06-03T10:06:55.400Z,26.20
2018-06-03T10:09:26.593Z,26.50
2018-06-03T10:11:57.158Z,26.40
2018-06-03T10:14:27.575Z,26.80
2018-06-03T10:16:57.927Z,27.20
2018-06-03T10:19:28.492Z,27.70
2018-06-03T10:21:59.238Z,28.20
2018-06-03T10:24:29.567Z,28.30
2018-06-03T10:26:59.945Z,28.40
2018-06-03T10:29:30.498Z,28.50
2018-06-03T10:32:01.658Z,28.40
2018-06-03T10:34:32.239Z,28.40
2018-06-03T10:37:02.890Z,28.10
2018-06-03T10:39:33.261Z,28.10
2018-06-03T10:42:03.628Z,28.00
2018-06-03T10:44:34.267Z,27.90
2018-06-03T10:47:04.629Z,27.40
2018-06-03T10:49:34.985Z,27.50
2018-06-03T10:52:05.039Z,27.50
2018-06-03T10:54:35.392Z,27.40
2018-06-03T10:57:06.412Z,27.40
2018-06-03T10:59:36.988Z,27.60
2018-06-03T11:02:07.240Z,27.80
2018-06-03T11:04:38.708Z,26.70
2018-06-03T11:07:09.311Z,26.60
2018-06-03T11:09:39.666Z,26.20
2018-06-03T11:12:11.342Z,25.60
2018-06-03T11:14:42.199Z,24.90
2018-06-03T11:17:12.875Z,24.20
2018-06-03T11:19:43.585Z,23.80
2018-06-03T11:22:14.244Z,23.50
2018-06-03T11:24:45.847Z,23.90
2018-06-03T11:27:16.813Z,23.90
2018-06-03T11:29:47.501Z,24.20
2018-06-03T11:32:18.161Z,24.50
2018-06-03T11:34:48.831Z,24.90
2018-06-03T11:37:20.244Z,24.50
2018-06-03T11:39:50.935Z,24.50
2018-06-03T11:42:21.595Z,24.10
2018-06-03T11:44:53.844Z,23.80
2018-06-03T11:47:24.698Z,23.50
2018-06-03T11:49:56.276Z,23.20
2018-06-03T11:52:28.650Z,23.40
2018-06-03T11:54:59.503Z,23.40
2018-06-03T11:57:44.616Z,23.50
2018-06-03T12:00:20.002Z,23.70
2018-06-03T12:02:54.072Z,24.00
2018-06-03T12:05:27.134Z,24.30
2018-06-03T12:07:57.935Z,24.30
2018-06-03T12:10:30.807Z,25.20
2018-06-03T12:13:02.024Z,25.20
2018-06-03T12:15:33.248Z,25.20
2018-06-03T12:18:05.286Z,25.30
2018-06-03T12:20:37.727Z,25.90
2018-06-03T12:23:08.432Z,25.90
2018-06-03T12:25:39.112Z,25.90
2018-06-03T12:28:11.851Z,25.50
2018-06-03T12:30:44.108Z,25.40
2018-06-03T12:33:15.008Z,25.20
2018-06-03T12:35:45.843Z,25.00
2018-06-03T12:38:17.749Z,24.60
2018-06-03T12:40:50.093Z,24.10
2018-06-03T12:43:21.776Z,24.10
2018-06-03T12:45:52.884Z,24.50
2018-06-03T12:48:25.471Z,24.50
2018-06-03T12:50:57.085Z,24.50
2018-06-03T12:53:29.452Z,24.30
2018-06-03T12:56:00.156Z,24.30
2018-06-03T12:58:32.490Z,24.30
2018-06-03T13:01:05.373Z,24.20
2018-06-03T13:03:36.019Z,24.50
2018-06-03T13:06:06.341Z,24.90
2018-06-03T13:08:37.126Z,25.50
2018-06-03T13:11:07.781Z,25.90
2018-06-03T13:13:38.415Z,26.10
2018-06-03T13:16:09.112Z,26.10
2018-06-03T13:18:39.955Z,26.20
2018-06-03T13:21:10.608Z,26.00
2018-06-03T13:23:41.855Z,25.60
2018-06-03T13:26:12.727Z,25.20
2018-06-03T13:28:43.592Z,24.90
2018-06-03T13:31:14.245Z,24.70
2018-06-03T13:33:44.911Z,24.50
2018-06-03T13:36:17.194Z,24.40
2018-06-03T13:38:47.901Z,24.30
2018-06-03T13:41:18.841Z,24.30
2018-06-03T13:43:49.542Z,24.20
2018-06-03T13:46:20.223Z,24.30
2018-06-03T13:48:50.884Z,24.60
2018-06-03T13:51:21.795Z,24.50
2018-06-03T13:53:52.628Z,24.40
2018-06-03T13:56:23.586Z,24.20
2018-06-03T13:58:54.244Z,24.20
2018-06-03T14:01:24.905Z,24.00
2018-06-03T14:03:55.561Z,23.90
2018-06-03T14:06:26.290Z,23.80
2018-06-03T14:08:57.916Z,23.70
2018-06-03T14:11:28.865Z,23.70
2018-06-03T14:13:59.736Z,23.80
2018-06-03T14:16:30.442Z,23.90
2018-06-03T14:19:01.916Z,24.10
2018-06-03T14:21:33.341Z,24.10
2018-06-03T14:24:04.246Z,24.10
2018-06-03T14:26:35.172Z,24.20
2018-06-03T14:29:05.835Z,24.20
2018-06-03T14:31:36.699Z,24.30
2018-06-03T14:34:07.400Z,24.30
2018-06-03T14:36:38.841Z,24.60
2018-06-03T16:53:30.856Z,23.10
2018-06-03T17:05:43.636Z,22.30
2018-06-03T17:20:57.166Z,21.60
2018-06-03T17:32:48.537Z,22.60
2018-06-03T17:38:47.052Z,23.40
2018-06-03T17:53:51.821Z,23.50
2018-06-03T17:59:56.361Z,23.10
2018-06-03T18:02:33.394Z,22.90
2018-06-03T18:11:27.598Z,21.50
2018-06-03T18:20:44.718Z,20.70
2018-06-03T18:32:45.393Z,19.80
2018-06-03T18:41:56.800Z,19.40
2018-06-03T18:50:53.487Z,19.00
2018-06-03T18:53:24.977Z,18.90
2018-06-03T19:11:45.370Z,18.40
2018-06-03T19:36:14.412Z,17.40
2018-06-03T19:51:23.032Z,16.80
2018-06-03T19:53:55.257Z,16.80
2018-06-03T19:59:44.682Z,16.90
2018-06-03T20:26:56.280Z,16.50
2018-06-03T20:36:30.679Z,16.50
2018-06-03T20:42:31.874Z,16.30
2018-06-03T20:58:46.014Z,16.20
2018-06-03T21:01:18.120Z,16.20
2018-06-03T21:16:44.122Z,16.20
2018-06-03T21:50:11.193Z,16.20
2018-06-03T21:55:52.086Z,16.30
2018-06-03T21:58:42.490Z,16.30
2018-06-03T22:17:18.312Z,16.50
2018-06-03T22:19:48.553Z,16.40
2018-06-03T22:22:42.827Z,16.20
2018-06-03T22:28:29.865Z,16.10
2018-06-03T22:40:37.172Z,16.00
2018-06-03T22:46:42.828Z,15.90
2018-06-03T22:49:41.407Z,15.90
2018-06-03T23:04:36.291Z,15.70
2018-06-03T23:16:35.472Z,15.60
2018-06-03T23:19:07.339Z,15.60
2018-06-03T23:21:38.146Z,15.60
2018-06-03T23:24:20.299Z,15.60
2018-06-03T23:33:50.292Z,15.60
2018-06-03T23:36:20.813Z,15.50
2018-06-03T23:38:52.723Z,15.50
2018-06-03T23:41:23.595Z,15.50
2018-06-03T23:50:06.950Z,15.40
2018-06-03T23:58:53.621Z,15.50
